Time;durP1;ratioP1;P1;durP2;ratioP2;P2;SDS_P1;SDS_P2;PMS_P1;PMS_P2;Temp;Humidity;BMP_temperature;BMP_pressure;BME280_temperature;BME280_humidity;BME280_pressure;Samples;Min_cycle;Max_cycle;Signal;HPM_P1;HPM_P2
2022/11/27 00:02:08;;;;;;;15.67;5.40;;;5.10;26.50;;;;;;5032435;28;20195;-63
2022/11/27 00:04:35;;;;;;;13.17;5.43;;;4.90;57.80;;;;;;5013834;28;20220;-64
2022/11/27 00:07:01;;;;;;;12.77;4.97;;;4.80;95.60;;;;;;5016283;28;20188;-64
2022/11/27 00:09:29;;;;;;;9.90;5.27;;;4.70;99.90;;;;;;5032079;28;20244;-71
2022/11/27 00:11:55;;;;;;;11.93;5.20;;;4.60;99.90;;;;;;5032072;28;20668;-64
2022/11/27 00:14:22;;;;;;;17.60;5.00;;;4.50;99.90;;;;;;5033218;28;20626;-63
2022/11/27 00:16:49;;;;;;;14.33;5.43;;;4.40;99.90;;;;;;5028411;28;20200;-67
2022/11/27 00:19:16;;;;;;;11.07;5.27;;;4.20;99.90;;;;;;5029926;28;20220;-64
2022/11/27 00:21:43;;;;;;;14.07;6.50;;;4.10;99.90;;;;;;5029317;28;20206;-64
2022/11/27 00:24:11;;;;;;;13.70;5.73;;;4.00;99.90;;;;;;5028925;28;20257;-72
2022/11/27 00:26:38;;;;;;;9.87;4.90;;;3.90;99.90;;;;;;5027164;28;20197;-63
2022/11/27 00:29:06;;;;;;;11.93;6.13;;;3.90;99.90;;;;;;5030933;28;20508;-65
2022/11/27 00:31:34;;;;;;;17.17;7.47;;;3.90;1.00;;;;;;5032153;28;20564;-64
2022/11/27 00:34:03;;;;;;;15.80;5.80;;;3.90;1.00;;;;;;5029004;28;20680;-63
2022/11/27 00:36:31;;;;;;;11.17;5.40;;;3.90;1.00;;;;;;5032130;28;20192;-63
2022/11/27 00:38:58;;;;;;;13.43;5.90;;;4.00;1.00;;;;;;5033141;28;20193;-63
2022/11/27 00:41:28;;;;;;;13.10;6.20;;;4.00;1.00;;;;;;5032975;28;20207;-63
2022/11/27 00:43:55;;;;;;;17.33;5.60;;;4.20;1.00;;;;;;5032597;28;20291;-62
2022/11/27 00:46:25;;;;;;;10.47;4.83;;;4.20;99.90;;;;;;5032253;28;20607;-62
2022/11/27 00:48:56;;;;;;;13.33;5.33;;;4.20;99.90;;;;;;5032751;28;21139;-63
2022/11/27 00:51:24;;;;;;;16.50;5.37;;;4.10;99.90;;;;;;5032938;28;20197;-62
2022/11/27 00:53:52;;;;;;;12.53;5.70;;;4.10;99.90;;;;;;5031406;28;20219;-63
2022/11/27 00:56:25;;;;;;;11.33;4.57;;;4.10;99.90;;;;;;5027169;28;20200;-64
2022/11/27 00:58:53;;;;;;;10.50;4.67;;;4.10;99.90;;;;;;5028991;28;20199;-62
2022/11/27 01:01:23;;;;;;;6.90;4.37;;;4.00;99.90;;;;;;5030647;28;20211;-64
2022/11/27 01:03:50;;;;;;;12.03;4.70;;;4.00;99.90;;;;;;5031491;28;20283;-63
2022/11/27 01:06:18;;;;;;;13.43;4.30;;;4.00;99.90;;;;;;5032888;28;20208;-63
2022/11/27 01:08:45;;;;;;;9.00;4.27;;;4.00;99.90;;;;;;5016199;28;20297;-64
2022/11/27 01:11:15;;;;;;;7.57;4.20;;;4.00;99.90;;;;;;5036848;28;20629;-66
2022/11/27 01:13:42;;;;;;;11.30;4.27;;;4.00;99.90;;;;;;5031302;28;20539;-64
2022/11/27 01:16:16;;;;;;;11.77;4.83;;;3.90;99.90;;;;;;5032937;28;20288;-63
2022/11/27 01:18:44;;;;;;;12.60;4.37;;;3.80;99.90;;;;;;5035472;28;20820;-62
2022/11/27 01:21:13;;;;;;;9.03;4.20;;;3.70;99.90;;;;;;5051124;28;20193;-64
2022/11/27 01:23:40;;;;;;;11.00;4.33;;;3.60;99.90;;;;;;5031488;28;20192;-64
2022/11/27 01:26:09;;;;;;;12.50;4.43;;;3.60;1.00;;;;;;5033008;28;20758;-63
2022/11/27 01:28:38;;;;;;;11.23;4.37;;;3.50;1.00;;;;;;5036222;28;20556;-62
2022/11/27 01:31:11;;;;;;;12.23;4.63;;;3.50;1.00;;;;;;5034812;28;20216;-61
2022/11/27 01:33:38;;;;;;;10.03;4.17;;;3.40;1.00;;;;;;5034641;28;20199;-64
2022/11/27 01:36:07;;;;;;;11.43;4.50;;;3.30;1.00;;;;;;5020277;28;20353;-63
2022/11/27 01:38:34;;;;;;;9.23;4.80;;;3.20;1.00;;;;;;5038943;28;20214;-62
2022/11/27 01:41:05;;;;;;;5.77;3.77;;;3.20;1.00;;;;;;5037159;28;20191;-63
2022/11/27 01:43:52;;;;;;;11.43;4.37;;;3.10;1.00;;;;;;5037960;28;20284;-63
2022/11/27 01:46:39;;;;;;;7.63;4.30;;;2.90;1.00;;;;;;5017783;28;20226;-63
2022/11/27 01:49:09;;;;;;;7.90;4.20;;;2.90;1.00;;;;;;5031016;28;20529;-63
2022/11/27 01:51:37;;;;;;;7.37;4.57;;;2.80;1.00;;;;;;5035000;28;20275;-64
2022/11/27 01:54:04;;;;;;;9.87;4.60;;;2.90;1.00;;;;;;5008113;28;20689;-63
2022/11/27 01:56:31;;;;;;;9.90;4.97;;;2.90;1.00;;;;;;5034159;28;20746;-64
2022/11/27 01:58:59;;;;;;;16.47;5.57;;;2.80;1.00;;;;;;5017055;28;20199;-63
2022/11/27 02:01:26;;;;;;;9.10;5.30;;;2.80;1.00;;;;;;5035927;28;20209;-63
2022/11/27 02:03:57;;;;;;;10.73;4.67;;;2.80;1.00;;;;;;5031135;28;20219;-62
2022/11/27 02:06:24;;;;;;;10.80;5.97;;;2.80;1.00;;;;;;5019202;28;20261;-63
2022/11/27 02:08:52;;;;;;;11.00;5.07;;;2.80;1.00;;;;;;5032651;28;20706;-62
2022/11/27 02:11:32;;;;;;;9.50;4.87;;;2.80;1.50;;;;;;5018017;28;20196;-63
2022/11/27 02:14:37;;;;;;;10.10;4.70;;;2.70;1.00;;;;;;5035770;28;20271;-64
2022/11/27 02:17:07;;;;;;;6.40;4.73;;;2.60;1.00;;;;;;5028835;28;20215;-65
2022/11/27 02:19:45;;;;;;;16.90;5.33;;;2.60;31.80;;;;;;5050712;28;20262;-64
2022/11/27 02:22:35;;;;;;;12.03;5.27;;;2.60;74.00;;;;;;5017731;28;20549;-64
2022/11/27 02:25:07;;;;;;;11.10;4.93;;;2.50;1.00;;;;;;5028029;28;20204;-65
2022/11/27 02:28:09;;;;;;;10.90;4.87;;;2.50;1.00;;;;;;5020507;28;20235;-62
2022/11/27 02:30:45;;;;;;;18.03;7.77;;;2.50;94.10;;;;;;5032842;28;20210;-64
2022/11/27 02:33:17;;;;;;;24.93;12.60;;;2.60;99.90;;;;;;5034940;28;20219;-63
2022/11/27 02:35:53;;;;;;;15.90;5.93;;;2.60;99.90;;;;;;5033316;28;20211;-65
2022/11/27 02:38:29;;;;;;;14.07;5.83;;;2.60;99.90;;;;;;5032487;28;20226;-63
2022/11/27 02:41:25;;;;;;;10.47;5.80;;;2.60;99.90;;;;;;5035148;28;20233;-63
2022/11/27 02:43:53;;;;;;;12.27;5.77;;;2.60;99.90;;;;;;5015051;28;20215;-64
2022/11/27 02:46:21;;;;;;;14.03;5.80;;;2.70;99.90;;;;;;5035050;28;20227;-66
2022/11/27 02:49:01;;;;;;;15.30;5.50;;;2.70;26.60;;;;;;5033568;28;20188;-63
2022/11/27 02:51:37;;;;;;;8.80;5.03;;;2.60;1.00;;;;;;5034401;28;20195;-63
2022/11/27 02:54:09;;;;;;;14.90;5.83;;;2.40;1.00;;;;;;5020629;28;20726;-64
2022/11/27 02:56:39;;;;;;;12.43;6.30;;;2.40;13.30;;;;;;5036651;28;20445;-64
2022/11/27 02:59:10;;;;;;;8.20;5.23;;;2.40;92.50;;;;;;5010062;28;20230;-63
2022/11/27 03:01:44;;;;;;;9.77;5.20;;;2.40;67.40;;;;;;5019618;28;20215;-64
2022/11/27 03:04:17;;;;;;;9.07;5.47;;;2.40;99.90;;;;;;5036487;28;20372;-63
2022/11/27 03:06:52;;;;;;;10.37;5.73;;;2.40;99.90;;;;;;5035137;28;20600;-65
2022/11/27 03:09:36;;;;;;;10.30;6.00;;;2.40;95.20;;;;;;5036305;28;20317;-66
2022/11/27 03:12:06;;;;;;;9.80;6.43;;;2.40;27.30;;;;;;5036141;28;20275;-64
2022/11/27 03:14:35;;;;;;;11.17;6.77;;;2.40;1.00;;;;;;5009343;28;20206;-66
2022/11/27 03:17:15;;;;;;;12.10;6.60;;;2.40;1.00;;;;;;5032488;28;20214;-65
2022/11/27 03:19:49;;;;;;;13.63;7.23;;;2.50;1.00;;;;;;5034876;28;20289;-65
2022/11/27 03:22:16;;;;;;;15.30;6.77;;;2.70;1.00;;;;;;5035401;28;20541;-66
2022/11/27 03:24:43;;;;;;;16.73;7.80;;;2.90;99.90;;;;;;5035029;28;20283;-65
2022/11/27 03:27:18;;;;;;;14.53;7.40;;;2.80;99.90;;;;;;5036321;28;20210;-66
2022/11/27 03:29:50;;;;;;;13.83;7.30;;;2.90;99.90;;;;;;5030979;28;20219;-61
2022/11/27 03:32:17;;;;;;;13.57;7.37;;;2.90;99.90;;;;;;5031476;28;20195;-61
2022/11/27 03:34:46;;;;;;;11.90;7.07;;;2.90;99.90;;;;;;5029645;28;20200;-60
2022/11/27 03:37:13;;;;;;;11.07;6.37;;;3.00;99.90;;;;;;5030665;28;20235;-59
2022/11/27 03:39:41;;;;;;;12.57;6.37;;;2.90;99.90;;;;;;5032453;28;20195;-61
2022/11/27 03:42:35;;;;;;;11.27;6.67;;;3.00;99.90;;;;;;5028800;28;20203;-62
2022/11/27 03:45:02;;;;;;;9.93;6.10;;;3.10;99.90;;;;;;5031351;28;20262;-61
2022/11/27 03:47:46;;;;;;;10.80;6.00;;;2.90;99.90;;;;;;5016448;28;20188;-60
2022/11/27 03:50:19;;;;;;;8.00;5.30;;;2.80;99.90;;;;;;5033502;28;20607;-58
2022/11/27 03:53:21;;;;;;;12.10;6.37;;;2.80;99.90;;;;;;5033162;28;20693;-57
2022/11/27 03:55:54;;;;;;;10.23;5.87;;;2.70;99.90;;;;;;5034489;28;20202;-60
2022/11/27 03:58:42;;;;;;;12.03;5.80;;;2.70;99.90;;;;;;5033746;28;20227;-57
2022/11/27 04:01:13;;;;;;;9.80;5.53;;;2.70;99.90;;;;;;5035217;28;20229;-58
2022/11/27 04:03:40;;;;;;;10.23;5.40;;;2.60;99.90;;;;;;5031199;28;20194;-58
2022/11/27 04:06:07;;;;;;;7.40;5.60;;;2.50;99.90;;;;;;5031550;28;20619;-60
2022/11/27 04:08:34;;;;;;;10.70;6.27;;;2.50;99.90;;;;;;5035475;28;20268;-68
2022/11/27 04:11:01;;;;;;;11.40;6.20;;;2.40;99.90;;;;;;5031753;28;20524;-60
2022/11/27 04:13:28;;;;;;;13.33;5.90;;;2.30;99.90;;;;;;5034267;28;20231;-61
2022/11/27 04:15:55;;;;;;;11.70;5.67;;;2.30;99.90;;;;;;5032584;28;20223;-61
2022/11/27 04:18:22;;;;;;;10.10;5.47;;;2.20;1.00;;;;;;5030832;28;20274;-61
2022/11/27 04:20:49;;;;;;;15.00;6.30;;;2.20;1.00;;;;;;5031916;28;20283;-61
2022/11/27 04:23:15;;;;;;;12.47;5.73;;;2.10;1.00;;;;;;5013782;28;20941;-61
2022/11/27 04:25:43;;;;;;;10.60;6.83;;;2.10;1.00;;;;;;5033173;28;20201;-60
2022/11/27 04:28:09;;;;;;;10.00;6.33;;;2.10;1.00;;;;;;5033019;28;20733;-60
2022/11/27 04:30:36;;;;;;;15.57;6.50;;;2.10;1.00;;;;;;5032319;28;20784;-61
2022/11/27 04:33:03;;;;;;;10.33;6.40;;;2.00;1.00;;;;;;5016419;28;20751;-62
2022/11/27 04:35:30;;;;;;;14.23;6.90;;;1.90;1.00;;;;;;5029753;28;20292;-58
2022/11/27 04:37:58;;;;;;;12.33;7.10;;;1.90;1.00;;;;;;5033941;28;20195;-59
2022/11/27 04:40:24;;;;;;;14.17;7.00;;;1.90;1.00;;;;;;5033923;28;20200;-60
2022/11/27 04:42:52;;;;;;;14.63;6.87;;;1.90;1.00;;;;;;5036609;28;20204;-60
2022/11/27 04:45:19;;;;;;;15.47;7.10;;;1.80;1.00;;;;;;5029034;28;20751;-62
2022/11/27 04:47:46;;;;;;;19.03;9.70;;;1.80;1.00;;;;;;5037052;28;20618;-61
2022/11/27 04:50:13;;;;;;;15.20;9.90;;;1.80;1.00;;;;;;5036279;28;20219;-61
2022/11/27 04:52:40;;;;;;;17.60;9.40;;;1.70;1.00;;;;;;5032895;28;20203;-62
2022/11/27 04:55:07;;;;;;;21.33;11.00;;;1.70;1.00;;;;;;5035516;28;20694;-62
2022/11/27 04:57:34;;;;;;;12.47;7.53;;;1.70;1.00;;;;;;5035729;28;20192;-59
2022/11/27 05:00:03;;;;;;;16.47;8.73;;;1.70;1.00;;;;;;5036289;28;20278;-62
2022/11/27 05:02:30;;;;;;;13.13;8.03;;;1.80;1.00;;;;;;5036155;28;20201;-61
2022/11/27 05:04:57;;;;;;;13.50;7.30;;;1.80;1.00;;;;;;5035788;28;20192;-62
2022/11/27 05:07:24;;;;;;;14.80;7.37;;;1.80;1.00;;;;;;5037246;28;20241;-60
2022/11/27 05:09:51;;;;;;;17.20;8.23;;;1.80;1.00;;;;;;5035239;28;20223;-61
2022/11/27 05:12:18;;;;;;;12.63;6.73;;;1.80;1.00;;;;;;5036197;28;20198;-61
2022/11/27 05:14:45;;;;;;;14.73;7.10;;;1.90;1.00;;;;;;5019902;28;20664;-61
2022/11/27 05:17:12;;;;;;;14.17;6.83;;;1.90;1.00;;;;;;5031592;28;20725;-60
2022/11/27 05:19:39;;;;;;;13.13;6.73;;;2.00;1.00;;;;;;5017108;28;20224;-62
2022/11/27 05:22:06;;;;;;;10.27;7.00;;;2.10;1.00;;;;;;5033205;28;20231;-61
2022/11/27 05:24:33;;;;;;;17.13;7.23;;;2.10;1.00;;;;;;5034607;28;20603;-60
2022/11/27 05:26:59;;;;;;;14.23;8.23;;;2.20;1.00;;;;;;5030709;28;20210;-62
2022/11/27 05:29:26;;;;;;;11.87;6.30;;;2.20;99.90;;;;;;5018211;28;20740;-63
2022/11/27 05:31:53;;;;;;;10.97;6.30;;;2.20;99.90;;;;;;5017216;28;20674;-65
2022/11/27 05:34:20;;;;;;;14.53;6.70;;;2.30;99.90;;;;;;5033496;28;20184;-61
2022/11/27 05:36:48;;;;;;;9.67;5.70;;;2.40;99.90;;;;;;5031128;28;20704;-59
2022/11/27 05:39:15;;;;;;;9.17;5.70;;;2.50;99.90;;;;;;5033571;28;20200;-61
2022/11/27 05:41:42;;;;;;;11.83;5.23;;;2.50;99.90;;;;;;5032107;28;20238;-61
2022/11/27 05:44:12;;;;;;;10.13;6.00;;;2.60;99.90;;;;;;5027472;28;20712;-60
2022/11/27 05:46:39;;;;;;;10.87;5.57;;;2.70;99.90;;;;;;5033503;28;20243;-62
2022/11/27 05:49:06;;;;;;;11.07;5.57;;;2.70;84.20;;;;;;5029730;28;20485;-61
2022/11/27 05:51:33;;;;;;;10.03;5.03;;;2.80;41.90;;;;;;5028501;28;20733;-61
2022/11/27 05:54:00;;;;;;;10.07;5.73;;;2.90;12.80;;;;;;5048118;28;20198;-61
2022/11/27 05:56:27;;;;;;;10.07;6.07;;;3.10;1.00;;;;;;5031318;28;20192;-62
2022/11/27 05:58:54;;;;;;;9.90;5.67;;;3.20;1.00;;;;;;5033565;28;20210;-61
2022/11/27 06:01:21;;;;;;;12.33;6.07;;;3.30;1.00;;;;;;5015706;28;20214;-61
2022/11/27 06:03:48;;;;;;;7.10;5.33;;;3.40;1.00;;;;;;5034299;28;20205;-61
2022/11/27 06:06:17;;;;;;;11.70;5.63;;;3.50;1.00;;;;;;5030994;28;20223;-62
2022/11/27 06:08:46;;;;;;;10.00;5.57;;;3.40;1.00;;;;;;5034829;28;20676;-60
2022/11/27 06:11:21;;;;;;;7.13;5.23;;;3.30;1.00;;;;;;5031556;28;20263;-60
2022/11/27 06:13:48;;;;;;;10.90;5.10;;;3.20;1.00;;;;;;5036593;28;20241;-61
2022/11/27 06:16:21;;;;;;;5.57;4.87;;;3.10;1.00;;;;;;5031615;28;20750;-58
2022/11/27 06:18:52;;;;;;;12.03;5.47;;;3.10;1.00;;;;;;5032151;28;20254;-59
2022/11/27 06:21:22;;;;;;;11.27;5.40;;;3.00;1.00;;;;;;5032436;28;20192;-61
2022/11/27 06:23:51;;;;;;;7.93;5.00;;;3.00;1.00;;;;;;5044639;28;20203;-61
2022/11/27 06:26:22;;;;;;;8.03;4.77;;;3.00;1.00;;;;;;5030492;28;20251;-58
2022/11/27 06:28:49;;;;;;;7.90;4.77;;;3.10;1.00;;;;;;5034705;28;20319;-62
2022/11/27 06:31:21;;;;;;;8.43;4.73;;;3.10;1.00;;;;;;5026932;28;20197;-61
2022/11/27 06:33:50;;;;;;;9.27;4.97;;;3.00;1.00;;;;;;5028859;28;20545;-60
2022/11/27 06:36:17;;;;;;;8.70;5.20;;;3.00;1.00;;;;;;5013833;28;20318;-61
2022/11/27 06:38:45;;;;;;;20.37;10.37;;;2.90;1.00;;;;;;5031727;28;20196;-59
2022/11/27 06:41:14;;;;;;;18.83;10.13;;;3.00;1.00;;;;;;5030196;28;20223;-59
2022/11/27 06:43:41;;;;;;;15.93;7.63;;;2.90;1.00;;;;;;5033104;28;20192;-63
2022/11/27 06:46:14;;;;;;;11.03;6.47;;;2.90;1.00;;;;;;5029846;28;20242;-59
2022/11/27 06:48:42;;;;;;;12.43;5.60;;;2.90;1.00;;;;;;5026624;28;20715;-63
2022/11/27 06:51:11;;;;;;;9.53;5.00;;;3.00;1.00;;;;;;5032406;28;20737;-61
2022/11/27 06:53:39;;;;;;;9.20;4.97;;;3.00;1.00;;;;;;5048476;28;20291;-62
2022/11/27 06:56:07;;;;;;;10.20;5.07;;;3.10;1.00;;;;;;5034805;28;20279;-63
2022/11/27 06:58:35;;;;;;;10.50;5.27;;;3.10;1.00;;;;;;5031393;28;20231;-62
2022/11/27 07:01:06;;;;;;;8.63;5.20;;;3.10;1.00;;;;;;5023101;28;20647;-58
2022/11/27 07:03:33;;;;;;;6.83;5.33;;;3.10;1.00;;;;;;5020567;28;20358;-59
2022/11/27 07:06:02;;;;;;;9.43;5.30;;;3.10;1.00;;;;;;5032795;28;20560;-58
2022/11/27 07:08:29;;;;;;;7.67;5.20;;;3.00;1.00;;;;;;5036390;28;20192;-65
2022/11/27 07:11:27;;;;;;;13.77;10.00;;;3.10;1.00;;;;;;5031439;28;20270;-59
2022/11/27 07:13:57;;;;;;;10.70;4.83;;;3.10;1.00;;;;;;5034558;28;20251;-59
2022/11/27 07:16:26;;;;;;;9.20;5.97;;;3.10;1.00;;;;;;5033872;28;20206;-59
2022/11/27 07:18:56;;;;;;;9.70;5.03;;;3.30;1.00;;;;;;5031788;28;20811;-58
2022/11/27 07:21:23;;;;;;;8.93;5.50;;;3.30;1.00;;;;;;5029540;28;20195;-60
2022/11/27 07:23:51;;;;;;;8.27;5.90;;;3.30;1.00;;;;;;5032917;28;20220;-60
2022/11/27 07:26:21;;;;;;;8.43;5.50;;;3.40;1.00;;;;;;5028068;28;20243;-62
2022/11/27 07:28:49;;;;;;;13.03;5.47;;;3.50;1.00;;;;;;5025331;28;20223;-58
2022/11/27 07:31:21;;;;;;;11.13;7.43;;;3.50;1.00;;;;;;5046497;28;20295;-58
2022/11/27 07:33:51;;;;;;;12.30;8.43;;;3.60;1.00;;;;;;5031927;28;20200;-58
2022/11/27 07:36:21;;;;;;;10.77;8.63;;;3.60;1.00;;;;;;5031302;28;20223;-58
2022/11/27 07:38:48;;;;;;;13.90;8.73;;;3.80;1.00;;;;;;5033051;28;20210;-60
2022/11/27 07:41:15;;;;;;;10.90;8.33;;;3.80;1.00;;;;;;5034595;28;20196;-59
2022/11/27 07:43:43;;;;;;;10.00;6.23;;;3.90;1.00;;;;;;5037430;28;20275;-59
2022/11/27 07:46:16;;;;;;;13.53;8.50;;;4.10;1.00;;;;;;5019493;28;20212;-58
2022/11/27 07:48:43;;;;;;;11.83;7.93;;;4.20;1.00;;;;;;5036931;28;20294;-59
2022/11/27 07:51:13;;;;;;;10.27;6.97;;;4.40;1.00;;;;;;5034632;28;20615;-59
2022/11/27 07:53:41;;;;;;;10.10;6.93;;;4.50;1.00;;;;;;5033805;28;20206;-59
2022/11/27 07:56:10;;;;;;;11.93;6.07;;;4.70;1.00;;;;;;5033824;28;20191;-60
2022/11/27 07:58:37;;;;;;;9.17;5.80;;;5.20;1.00;;;;;;5033863;28;20199;-63
2022/11/27 08:01:09;;;;;;;11.20;6.23;;;5.40;1.00;;;;;;5032154;28;20267;-58
2022/11/27 08:03:37;;;;;;;9.97;5.83;;;5.50;1.00;;;;;;5026526;28;20600;-64
2022/11/27 08:06:12;;;;;;;9.87;6.40;;;5.60;1.00;;;;;;5016180;28;20203;-59
2022/11/27 08:08:39;;;;;;;10.50;5.93;;;5.90;1.00;;;;;;5032957;28;20609;-59
2022/11/27 08:11:14;;;;;;;9.13;6.17;;;6.10;1.00;;;;;;5011982;28;20192;-59
2022/11/27 08:13:41;;;;;;;11.83;6.67;;;6.20;1.00;;;;;;5032010;28;20270;-59
2022/11/27 08:16:08;;;;;;;11.20;6.27;;;6.20;1.00;;;;;;5036512;28;20203;-61
2022/11/27 08:18:35;;;;;;;9.57;6.20;;;6.40;1.00;;;;;;5020350;28;20685;-60
2022/11/27 08:21:02;;;;;;;10.43;6.00;;;6.40;1.00;;;;;;5037184;28;20196;-59
2022/11/27 08:23:29;;;;;;;11.47;6.40;;;6.40;1.00;;;;;;5032513;28;20188;-60
2022/11/27 08:25:56;;;;;;;8.87;6.00;;;6.40;1.00;;;;;;5038092;28;20198;-60
2022/11/27 08:28:23;;;;;;;11.33;6.97;;;6.40;1.00;;;;;;5017512;28;20235;-59
2022/11/27 08:30:57;;;;;;;11.07;6.30;;;6.40;1.00;;;;;;5038261;28;20298;-58
2022/11/27 08:33:24;;;;;;;8.73;5.93;;;6.40;1.00;;;;;;5022603;28;20531;-59
2022/11/27 08:35:51;;;;;;;8.57;5.83;;;6.60;1.00;;;;;;5036779;28;20207;-60
2022/11/27 08:38:18;;;;;;;10.90;6.53;;;6.60;1.00;;;;;;5034660;28;20206;-58
2022/11/27 08:40:54;;;;;;;7.33;5.50;;;6.70;1.00;;;;;;5034916;28;20719;-58
2022/11/27 08:43:21;;;;;;;8.90;6.23;;;6.90;1.00;;;;;;5034058;28;20242;-59
2022/11/27 08:45:48;;;;;;;7.67;5.40;;;7.10;1.00;;;;;;5033748;28;20311;-61
2022/11/27 08:48:16;;;;;;;7.13;5.13;;;7.20;1.00;;;;;;5036274;28;20203;-65
2022/11/27 08:50:43;;;;;;;8.73;5.30;;;7.40;1.00;;;;;;5018443;28;20275;-58
2022/11/27 08:53:10;;;;;;;12.70;5.73;;;7.50;1.00;;;;;;5041829;28;20721;-58
2022/11/27 08:55:37;;;;;;;8.50;5.33;;;7.70;1.00;;;;;;5039516;28;20204;-59
2022/11/27 08:58:05;;;;;;;7.10;5.13;;;7.60;1.00;;;;;;5039752;28;20536;-58
2022/11/27 09:00:32;;;;;;;10.00;5.50;;;7.60;1.00;;;;;;5039844;28;20755;-59
2022/11/27 09:03:00;;;;;;;11.30;5.40;;;7.60;1.00;;;;;;5033606;28;20195;-59
2022/11/27 09:05:28;;;;;;;8.67;4.97;;;7.80;1.00;;;;;;5033754;28;20203;-58
2022/11/27 09:07:55;;;;;;;6.80;4.87;;;7.90;1.00;;;;;;5037480;28;20771;-60
2022/11/27 09:10:23;;;;;;;7.43;5.03;;;8.00;1.00;;;;;;5036637;28;20250;-61
2022/11/27 09:12:50;;;;;;;7.87;4.90;;;8.30;1.00;;;;;;5018099;28;20710;-63
2022/11/27 09:15:17;;;;;;;9.90;5.80;;;8.60;1.00;;;;;;5037378;28;20196;-61
2022/11/27 09:17:44;;;;;;;7.03;4.73;;;9.10;1.00;;;;;;5038479;28;20314;-62
2022/11/27 09:20:13;;;;;;;9.13;4.90;;;11.00;1.00;;;;;;5031642;28;20265;-65
2022/11/27 09:22:40;;;;;;;6.23;4.47;;;16.20;1.00;;;;;;5033553;28;20680;-61
2022/11/27 09:25:08;;;;;;;6.45;3.78;;;19.50;1.00;;;;;;5037173;28;20194;-64
2022/11/27 09:27:36;;;;;;;7.53;5.18;;;20.30;1.00;;;;;;5044827;28;20719;-62
2022/11/27 09:30:06;;;;;;;6.50;4.18;;;19.00;1.00;;;;;;5037699;28;20189;-62
2022/11/27 09:32:33;;;;;;;7.68;4.20;;;18.80;1.00;;;;;;5009703;28;20689;-61
2022/11/27 09:35:00;;;;;;;5.75;4.10;;;15.80;1.00;;;;;;5031277;28;20447;-61
2022/11/27 09:37:27;;;;;;;5.30;3.53;;;15.30;1.00;;;;;;5034308;28;20194;-63
2022/11/27 09:39:54;;;;;;;6.10;4.25;;;14.30;1.00;;;;;;5034363;28;20199;-62
2022/11/27 09:42:36;;;;;;;5.70;3.85;;;11.70;1.00;;;;;;5025901;28;20303;-69
2022/11/27 09:45:07;;;;;;;10.33;7.97;;;10.50;1.00;;;;;;5031363;28;20204;-62
2022/11/27 09:47:41;;;;;;;9.27;8.07;;;10.20;1.00;;;;;;5030876;28;20266;-62
2022/11/27 09:50:28;;;;;;;14.27;12.70;;;9.80;1.00;;;;;;5033858;28;20199;-61
2022/11/27 09:53:20;;;;;;;9.63;6.43;;;10.00;1.00;;;;;;5034966;28;20656;-61
2022/11/27 09:55:50;;;;;;;7.30;4.40;;;9.70;1.00;;;;;;5019532;28;20191;-61
2022/11/27 09:58:39;;;;;;;11.43;6.53;;;9.70;1.00;;;;;;5032949;28;20343;-61
2022/11/27 10:01:17;;;;;;;8.80;6.47;;;9.60;1.00;;;;;;5037188;28;20235;-61
2022/11/27 10:03:45;;;;;;;21.13;12.47;;;9.40;1.00;;;;;;5038268;28;20691;-61
2022/11/27 10:06:25;;;;;;;6.23;4.37;;;9.50;1.00;;;;;;5030397;28;20933;-61
2022/11/27 10:09:01;;;;;;;4.73;3.40;;;9.60;1.00;;;;;;5028444;28;20295;-61
2022/11/27 10:11:43;;;;;;;7.73;3.40;;;9.90;1.00;;;;;;5025685;28;20206;-64
2022/11/27 10:14:28;;;;;;;5.63;3.90;;;9.80;1.00;;;;;;5021038;28;20187;-65
2022/11/27 10:17:19;;;;;;;17.40;11.93;;;9.90;1.00;;;;;;5046415;28;20747;-60
2022/11/27 10:20:02;;;;;;;11.40;7.47;;;9.90;1.00;;;;;;5027231;28;20480;-61
2022/11/27 10:22:49;;;;;;;10.93;7.07;;;10.00;1.00;;;;;;5033038;28;20200;-63
2022/11/27 10:25:27;;;;;;;9.83;7.20;;;9.90;1.00;;;;;;5034210;28;20207;-62
2022/11/27 10:28:25;;;;;;;6.87;3.90;;;9.90;1.00;;;;;;5051689;28;20323;-62
2022/11/27 10:31:02;;;;;;;6.23;4.67;;;9.90;1.00;;;;;;5034760;28;20278;-63
2022/11/27 10:33:42;;;;;;;8.07;5.00;;;9.80;1.00;;;;;;5027138;28;20567;-61
2022/11/27 10:36:40;;;;;;;14.37;9.37;;;9.70;1.00;;;;;;5033535;28;20555;-61
2022/11/27 10:39:18;;;;;;;7.33;4.60;;;9.80;1.00;;;;;;5033344;28;20184;-61
2022/11/27 10:41:52;;;;;;;12.10;4.90;;;9.80;1.00;;;;;;5035518;28;20188;-58
2022/11/27 10:44:28;;;;;;;11.10;8.00;;;9.70;1.00;;;;;;5022948;28;20279;-59
2022/11/27 10:47:02;;;;;;;13.03;9.13;;;9.80;1.00;;;;;;5012377;28;20191;-61
2022/11/27 10:49:30;;;;;;;8.73;5.50;;;9.80;1.00;;;;;;5030139;28;20312;-60
2022/11/27 10:51:58;;;;;;;6.60;4.20;;;9.70;1.00;;;;;;5027599;28;20196;-61
2022/11/27 10:54:36;;;;;;;8.97;4.37;;;9.70;1.00;;;;;;5024643;28;20593;-62
2022/11/27 10:57:24;;;;;;;14.77;10.43;;;9.70;1.00;;;;;;5019088;28;20196;-62
2022/11/27 11:00:10;;;;;;;7.70;6.13;;;9.80;1.00;;;;;;5033130;28;20734;-61
2022/11/27 11:02:38;;;;;;;5.33;3.83;;;9.80;1.00;;;;;;5029045;28;20199;-60
2022/11/27 11:05:25;;;;;;;6.80;3.97;;;9.90;1.00;;;;;;5033822;28;20211;-60
2022/11/27 11:08:17;;;;;;;5.60;4.40;;;10.00;1.00;;;;;;5033461;28;20230;-61
2022/11/27 11:10:48;;;;;;;5.57;3.50;;;10.10;1.00;;;;;;5031855;28;20277;-61
2022/11/27 11:13:21;;;;;;;4.23;2.43;;;10.10;1.00;;;;;;5017353;28;20184;-63
2022/11/27 11:15:56;;;;;;;5.23;3.00;;;10.30;1.00;;;;;;5032996;28;20220;-62
2022/11/27 11:18:26;;;;;;;6.50;3.10;;;10.20;1.00;;;;;;5047019;28;20668;-61
2022/11/27 11:20:56;;;;;;;4.43;2.47;;;10.10;1.00;;;;;;5024831;28;20284;-61
2022/11/27 11:23:29;;;;;;;7.80;3.77;;;10.10;1.00;;;;;;5033648;28;20223;-62
2022/11/27 11:26:06;;;;;;;4.90;2.57;;;10.00;1.00;;;;;;5033686;28;20206;-62
2022/11/27 11:28:39;;;;;;;4.23;2.47;;;10.00;1.00;;;;;;5032945;28;20232;-60
2022/11/27 11:31:16;;;;;;;3.20;2.23;;;10.00;1.00;;;;;;5032511;28;20204;-69
2022/11/27 11:33:50;;;;;;;3.70;2.47;;;9.90;1.00;;;;;;5019205;28;20200;-67
2022/11/27 11:36:18;;;;;;;4.17;2.43;;;10.00;1.00;;;;;;5031324;28;20199;-60
2022/11/27 11:38:46;;;;;;;5.77;2.77;;;9.90;1.00;;;;;;5029207;28;20193;-61
2022/11/27 11:41:16;;;;;;;4.80;3.10;;;10.00;1.00;;;;;;5031939;28;20265;-60
2022/11/27 11:44:01;;;;;;;5.80;2.70;;;9.90;1.00;;;;;;5030247;28;20196;-60
2022/11/27 11:46:32;;;;;;;5.60;3.10;;;10.00;1.00;;;;;;5031594;28;20674;-61
2022/11/27 11:49:01;;;;;;;7.40;3.00;;;9.90;1.00;;;;;;5027311;28;20203;-59
2022/11/27 11:51:43;;;;;;;4.23;2.80;;;9.90;1.00;;;;;;5026748;28;20659;-61
2022/11/27 11:54:42;;;;;;;4.70;2.87;;;9.90;1.00;;;;;;5026206;28;20190;-61
2022/11/27 11:57:29;;;;;;;5.77;4.23;;;9.90;1.00;;;;;;5028004;28;20207;-62
2022/11/27 12:00:02;;;;;;;4.07;2.93;;;10.00;1.00;;;;;;5025536;28;20730;-60
2022/11/27 12:02:52;;;;;;;6.37;2.87;;;10.00;1.00;;;;;;5033046;28;20595;-63
2022/11/27 12:05:30;;;;;;;7.57;2.53;;;10.00;1.00;;;;;;5033758;28;20195;-61
2022/11/27 12:08:04;;;;;;;6.17;2.90;;;10.00;1.00;;;;;;5015096;28;20592;-62
2022/11/27 12:11:03;;;;;;;4.60;3.33;;;10.00;1.00;;;;;;5026292;28;20224;-61
2022/11/27 12:13:41;;;;;;;6.33;2.83;;;10.00;1.00;;;;;;5027291;28;20229;-61
2022/11/27 12:16:38;;;;;;;4.67;3.13;;;10.00;1.00;;;;;;5030098;28;20195;-60
2022/11/27 12:19:17;;;;;;;4.63;2.33;;;10.10;1.00;;;;;;4998114;28;20193;-61
2022/11/27 12:22:13;;;;;;;2.60;2.03;;;10.10;1.00;;;;;;5027953;28;20191;-61
2022/11/27 12:24:43;;;;;;;5.87;2.43;;;10.20;1.00;;;;;;5026920;28;20204;-59
2022/11/27 12:28:07;;;;;;;4.67;2.60;;;10.30;1.00;;;;;;5027107;28;20199;-60
2022/11/27 12:30:50;;;;;;;4.43;4.00;;;10.30;1.00;;;;;;5025106;28;20219;-68
2022/11/27 12:33:44;;;;;;;4.77;2.73;;;10.30;1.00;;;;;;5019246;28;20199;-61
2022/11/27 12:36:29;;;;;;;5.17;3.80;;;10.30;1.00;;;;;;5048982;28;20199;-62
2022/11/27 12:38:59;;;;;;;4.27;2.80;;;10.20;1.00;;;;;;5028406;28;20193;-61
2022/11/27 12:41:53;;;;;;;6.07;3.53;;;10.20;1.00;;;;;;5027734;28;21104;-62
2022/11/27 12:44:36;;;;;;;3.20;2.40;;;10.20;1.00;;;;;;5032952;28;20684;-64
2022/11/27 12:47:16;;;;;;;4.17;3.37;;;10.20;1.00;;;;;;5033493;28;20695;-61
2022/11/27 12:49:47;;;;;;;5.23;2.97;;;10.20;1.00;;;;;;5016261;28;20223;-62
2022/11/27 12:52:24;;;;;;;4.60;2.90;;;10.20;1.00;;;;;;5012766;28;20199;-61
2022/11/27 12:55:04;;;;;;;3.43;3.00;;;10.30;1.00;;;;;;5028537;28;20270;-60
2022/11/27 12:57:51;;;;;;;2.90;2.40;;;10.30;1.00;;;;;;5033340;28;20188;-62
2022/11/27 13:00:23;;;;;;;7.23;2.70;;;10.30;1.00;;;;;;5027186;28;20258;-62
2022/11/27 13:03:16;;;;;;;4.10;3.30;;;10.20;1.00;;;;;;5019858;28;20236;-62
2022/11/27 13:05:49;;;;;;;4.83;2.23;;;10.30;1.00;;;;;;5034731;28;20193;-63
2022/11/27 13:08:23;;;;;;;3.13;2.17;;;10.20;1.00;;;;;;5032882;28;20797;-61
2022/11/27 13:10:53;;;;;;;4.63;2.37;;;10.30;1.00;;;;;;5031743;28;20219;-62
2022/11/27 13:13:36;;;;;;;3.83;2.43;;;10.30;1.00;;;;;;5026021;28;20311;-60
2022/11/27 13:16:05;;;;;;;3.90;1.80;;;10.30;1.00;;;;;;5034414;28;20271;-64
2022/11/27 13:18:53;;;;;;;4.50;2.70;;;10.20;1.00;;;;;;5037785;28;21193;-62
2022/11/27 13:21:24;;;;;;;3.83;2.57;;;10.20;1.00;;;;;;5036888;28;20306;-61
2022/11/27 13:23:51;;;;;;;5.60;3.90;;;10.20;1.00;;;;;;5009117;28;20204;-63
2022/11/27 13:26:28;;;;;;;3.43;2.67;;;10.20;1.00;;;;;;5030920;28;20207;-63